Highlands Peak, California Weather observations

Data are for observation ending at time listed.
 Day   Time    Ave.   Ave.  Ave.  Vector   Max.   Stn.    Total    Solar   Ave.  
  of    of     Air    Rel.  Wind   Wind    Wind   Baro.  Precip.   Rad.    Soil  
Year   Day     Temp.  Hum.  Speed  Dir.    Gust   Pres.                    Temp. 
2015   (PST)    F      %     mph   deg.    mph     mb.     in.     W/m2     F   
------------------------------------------------------------------------------
 126    0:00   46.7    38    3.1   103      5.1   926.6    0.00       0    62.1
 126    0:10   45.4    48    4.8   100      6.5   926.5    0.00       0    62.0
 126    0:20   45.2    44    3.1    95      5.9   926.4    0.00       0    61.8
 126    0:30   44.8    62    1.0   227      2.5   926.4    0.00       0    61.7
 126    0:40   43.1    77    1.7   202      4.3   926.4    0.00       0    61.5
 126    0:50   41.4    89    2.4   174      3.1   926.3    0.00       0    61.4
 126    1:00   40.5    93    2.4   167      3.8   926.2    0.00       0    61.3
 126    1:10   40.8    92    1.7   184      4.5   926.2    0.00       0    61.1
 126    1:20   39.7    93    2.6   162      5.1   926.2    0.00       0    60.9
 126    1:30   39.9    96    3.0   136      4.0   926.1    0.00       0    60.8
 126    1:40   40.1    96    2.2   103      3.9   926.0    0.00       0    60.7
 126    1:50   41.5    81    0.1   286      1.2   926.0    0.00       0    60.6
 126    2:00   42.4    66    1.2   163      3.4   925.9    0.00       0    60.5
 126    2:10   41.0    88    3.4   153      5.1   925.8    0.00       0    60.3
 126    2:20   39.4    94    4.0   164      4.9   925.7    0.00       0    60.2
 126    2:30   39.1    96    4.4   156      5.8   925.7    0.00       0    60.1
 126    2:40   39.1    96    3.8   167      5.2   925.7    0.00       0    60.0
 126    2:50   39.5    97    3.3   168      5.1   925.6    0.00       0    59.8
 126    3:00   39.6    97    3.3   167      5.3   925.6    0.00       0    59.7
 126    3:10   39.3    96    3.9   158      4.9   925.5    0.00       0    59.6
 126    3:20   39.1    96    4.1   158      5.5   925.5    0.00       0    59.5
 126    3:30   39.2    96    3.1   145      4.5   925.5    0.00       0    59.4
 126    3:40   40.1    90    3.6   128      4.7   925.5    0.00       0    59.3
 126    3:50   41.2    81    2.4   141      3.1   925.4    0.00       0    59.1
 126    4:00   41.3    81    2.6   175      3.3   925.4    0.00       0    59.0
 126    4:10   40.4    86    3.6   198      4.6   925.5    0.00       0    58.8
 126    4:20   39.3    92    3.0   228      4.5   925.4    0.00       0    58.7
 126    4:30   38.8    94    3.7   159      5.3   925.4    0.00       0    58.6
 126    4:40   38.3    96    4.1   169      5.7   925.3    0.00       0    58.4
 126    4:50   38.4    96    4.9   154      6.4   925.2    0.00       0    58.4
 126    5:00   38.1    96    6.0   161      7.2   925.2    0.00       0    58.3
 126    5:10   38.0    96    5.7   159      7.0   925.3    0.00       2    58.2
 126    5:20   37.9    96    5.2   174      6.1   925.3    0.00       7    58.1
 126    5:30   38.2    97    4.1   163      5.4   925.4    0.00      17    57.9
 126    5:40   38.2    97    4.3   161      5.3   925.3    0.00      29    57.7
 126    5:50   38.2    97    4.6   182      5.2   925.3    0.00      40    57.7
 126    6:00   38.2    97    4.0   171      4.5   925.4    0.00      51    57.6
 126    6:10   38.4    97    3.9   163      4.5   925.4    0.00     102    57.5
 126    6:20   39.4    96    3.9   145      4.6   925.4    0.00     163    57.3
 126    6:30   40.4    94    3.1   170      3.8   925.5    0.00     205    57.1
 126    6:40   41.0    90    2.7   208      3.7   925.6    0.00     257    57.1
 126    6:50   41.7    88    1.6   182      3.0   925.6    0.00     303    57.0
 126    7:00   42.3    88    2.7   186      4.1   925.7    0.00     343    56.9
 126    7:10   42.7    85    2.4   164      4.7   925.7    0.00     387    56.8
 126    7:20   43.4    83    3.1   146      4.4   925.7    0.00     426    56.8
 126    7:30   44.1    83    2.7   157      5.4   925.7    0.00     474    56.7
 126    7:40   45.0    82    2.5   131      6.4   925.7    0.00     515    56.7
 126    7:50   44.9    80    3.2   193      5.5   925.8    0.00     555    56.6
 126    8:00   44.5    81    3.4   197      5.6   925.8    0.00     587    56.5
 126    8:10   45.0    82    3.3   196      6.1   925.8    0.00     582    56.6
 126    8:20   45.0    82    2.7   210      5.2   925.9    0.00     661    56.6
 126    8:30   45.4    81    2.5   252      4.5   925.9    0.00     653    56.7
 126    8:40   44.5    84    3.0   272      4.9   925.8    0.00     662    56.8
 126    8:50   44.5    84    2.9   267      5.3   925.8    0.00     548    56.9
 126    9:00   44.5    84    3.2   257      6.3   925.7    0.00     668    57.0
 126    9:10   44.9    83    3.5   240      6.4   925.7    0.00     633    57.1
 126    9:20   45.0    84    3.3   276      6.2   925.7    0.00     641    57.2
 126    9:30   44.8    84    4.4   264      7.5   925.8    0.00     572    57.4
 126    9:40   44.4    86    4.5   266      8.6   925.8    0.00     559    57.5
 126    9:50   44.9    86    6.5   277     11.2   925.9    0.00     498    57.7
 126   10:00   44.5    88    5.8   267      9.2   925.9    0.00     503    57.9
 126   10:10   45.1    87    9.0   272     14.0   926.0    0.00     591    58.0
 126   10:20   44.1    89    9.9   278     15.1   926.0    0.00     426    58.2
 126   10:30   43.8    91   11.2   275     15.4   926.0    0.00     394    58.4
 126   10:40   43.8    91   11.1   279     15.9   925.9    0.00     413    58.6
 126   10:50   44.1    90   11.0   277     15.6   925.9    0.00     441    58.7
 126   11:00   44.4    89   10.7   284     16.6   925.9    0.00     435    58.9
 126   11:10   44.4    88   11.5   280     16.0   925.9    0.00     459    59.1
 126   11:20   44.6    87   10.6   284     15.7   925.8    0.00     505    59.2
 126   11:30   44.8    87   11.2   274     15.1   925.7    0.00     531    59.3
 126   11:40   44.9    87   11.4   279     16.6   925.7    0.00     500    59.4
 126   11:50   44.8    88   10.6   280     15.3   925.7    0.00     508    59.5
 126   12:00   45.2    87   12.4   280     16.8   925.7    0.00     517    59.7
 126   12:10   44.6    87   12.9   277     17.9   925.6    0.00     521    59.8
 126   12:20   44.9    86   11.4   278     17.2   925.6    0.00     553    59.9
 126   12:30   45.2    86   12.2   276     17.3   925.4    0.00     612    60.0
 126   12:40   45.9    85   11.1   278     16.5   925.3    0.00     637    60.1
 126   12:50   46.2    85    9.7   280     16.3   925.2    0.00     601    60.2
 126   13:00   46.7    84   10.2   278     17.2   925.2    0.00     625    60.4
 126   13:10   45.9    86   11.4   274     15.6   925.2    0.00     619    60.5
 126   13:20   45.4    87   10.0   271     15.0   925.2    0.00     531    60.6
 126   13:30   45.3    88    8.1   272     12.8   925.2    0.00     588    60.8
 126   13:40   46.5    86    6.3   270     11.8   925.1    0.00     595    60.9
 126   13:50   46.4    86    7.4   272     11.4   925.1    0.00     546    61.1
 126   14:00   45.8    88    7.7   271     12.7   925.0    0.00     563    61.2
 126   14:10   45.9    88    8.0   269     12.3   925.0    0.00     501    61.4
 126   14:20   45.2    90    6.5   273     11.3   924.9    0.00     481    61.6
 126   14:30   45.8    89    6.6   268     11.7   924.8    0.00     436    61.7
 126   14:40   44.8    91    7.2   273     10.4   924.8    0.00     427    61.8
 126   14:50   44.8    92    6.3   266      9.1   924.7    0.00     468    62.0
 126   15:00   45.7    90    5.1   267      8.0   924.7    0.00     544    62.1
 126   15:10   45.6    90    4.3   277      6.9   924.7    0.00     422    62.2
 126   15:20   45.5    91    3.9   268      6.4   924.7    0.00     462    62.3
 126   15:30   46.5    89    3.3   270      6.0   924.6    0.00     505    62.5
 126   15:40   48.6    84    3.1   297      5.6   924.6    0.00     668    62.7
 126   15:50   49.4    82    4.2   269      7.5   924.6    0.00     591    62.9
 126   16:00   48.3    84    3.2   287      6.4   924.5    0.00     453    63.1
 126   16:10   48.8    84    2.1   278      5.4   924.5    0.00     513    63.2
 126   16:20   50.0    80    3.0   282      5.8   924.5    0.00     486    63.4
 126   16:30   47.9    85    2.7   288      5.3   924.5    0.00     341    63.6
 126   16:40   47.9    86    1.9   306      4.3   924.5    0.00     352    63.7
 126   16:50   48.3    85    2.4   307      5.0   924.5    0.00     355    63.9
 126   17:00   50.1    81    2.1   302      5.0   924.4    0.00     381    64.0
 126   17:10   49.4    82    3.9   288      6.7   924.4    0.00     276    64.1
 126   17:20   47.0    88    3.4   286      6.1   924.5    0.00     188    64.2
 126   17:30   45.5    91    3.4   279      5.6   924.4    0.00     146    64.3
 126   17:40   45.3    92    1.0   280      3.1   924.3    0.00     170    64.3
 126   17:50   47.8    88    1.1    88      2.2   924.2    0.00     185    64.4
 126   18:00   48.8    84    1.6    76      3.1   924.1    0.00     152    64.5
 126   18:10   49.7    82    1.5     6      4.2   924.0    0.00     124    64.6
 126   18:20   50.0    80    1.1   309      3.1   924.0    0.00      96    64.7
 126   18:30   49.0    82    2.5   339      5.0   924.0    0.00      71    64.7
 126   18:40   48.7    83    2.0   342      3.9   924.0    0.00      47    64.7
 126   18:50   49.1    80    5.3   347      9.0   923.9    0.00      27    64.7
 126   19:00   50.1    74    5.0   337      8.1   923.9    0.00      12    64.6
 126   19:10   50.1    72    6.2   333      9.7   923.9    0.00       3    64.6
 126   19:20   50.1    70    7.9   326     11.6   923.9    0.00       1    64.5
 126   19:30   49.3    75    6.0   338      9.4   923.9    0.00       0    64.4
 126   19:40   50.5    70    6.7   356      9.5   923.9    0.00       0    64.3
 126   19:50   51.0    66    5.3   330      7.5   923.9    0.00       0    64.3
 126   20:00   50.4    69    3.9   325      5.7   923.9    0.00       0    64.2
 126   20:10   51.0    69    4.0   354      5.4   924.0    0.00       0    64.1
 126   20:20   51.4    65    5.3   339      7.5   924.1    0.00       0    64.0
 126   20:30   52.5    55    5.8   355     10.4   924.2    0.00       0    63.8
 126   20:40   53.7    48    7.6    28     11.0   924.3    0.00       0    63.6
 126   20:50   53.7    49    7.0     4      9.6   924.3    0.00       0    63.4
 126   21:00   53.8    47    7.6    24     11.2   924.3    0.00       0    63.3
 126   21:10   53.2    48    5.1   330      8.1   924.3    0.00       0    63.1
 126   21:20   51.2    58    5.3   307      7.1   924.4    0.00       0    63.0
 126   21:30   50.0    61    6.4   308      8.2   924.4    0.00       0    63.0
 126   21:40   49.3    60    6.8   316      8.6   924.3    0.00       0    62.9
 126   21:50   49.2    56    5.8   320      7.2   924.3    0.00       0    62.8
 126   22:00   50.0    52    3.8   326      5.0   924.2    0.00       0    62.7
 126   22:10   51.2    43    2.4   320      3.8   924.2    0.00       0    62.6
 126   22:20   51.7    42    2.6   352      4.2   924.2    0.00       0    62.4
 126   22:30   51.0    34    5.3    34      6.8   924.1    0.00       0    62.3
 126   22:40   50.0    35    5.2    64      6.6   924.1    0.00       0    62.1

Return to Highlands Peak graphs page.


Western Regional Climate Center,wrcc@dri.edu